Terminal Aerodrome Forecast
Issued by NWS

Home | Current Version | Previous Version | Text Only | Print | Product List | Glossary Off
Versions: 1 2 3 4 5 6 7 8 9 10 11 12 13 14 15 16

253
FTUS43 KOAX 250527
TAFCDR
TAF
KCDR 250527Z 2506/2606 VRB05KT P6SM SKC
     FM251000 19006KT P6SM SCT150
     FM252300 04015G25KT P6SM -SHRA VCTS SCT080CB OVC100=

USA.gov is the U.S. government's official web portal to all federal, state and local government web resources and services.